sensor_id;sensor_type;location;lat;lon;timestamp;P1;durP1;ratioP1;P2;durP2;ratioP2
32152;SDS011;18656;50.580;11.392;2023-07-13T00:00:18;1.30;;;0.90;;
32152;SDS011;18656;50.580;11.392;2023-07-13T00:02:45;1.33;;;0.95;;
32152;SDS011;18656;50.580;11.392;2023-07-13T00:05:12;2.05;;;0.70;;
32152;SDS011;18656;50.580;11.392;2023-07-13T00:07:40;0.73;;;0.73;;
32152;SDS011;18656;50.580;11.392;2023-07-13T00:10:07;1.10;;;0.68;;
32152;SDS011;18656;50.580;11.392;2023-07-13T00:12:36;1.42;;;0.73;;
32152;SDS011;18656;50.580;11.392;2023-07-13T00:15:05;2.35;;;0.90;;
32152;SDS011;18656;50.580;11.392;2023-07-13T00:17:33;1.23;;;0.80;;
32152;SDS011;18656;50.580;11.392;2023-07-13T00:20:00;2.30;;;0.90;;
32152;SDS011;18656;50.580;11.392;2023-07-13T00:22:28;4.07;;;1.02;;
32152;SDS011;18656;50.580;11.392;2023-07-13T00:24:55;3.75;;;0.98;;
32152;SDS011;18656;50.580;11.392;2023-07-13T00:27:23;1.48;;;0.90;;
32152;SDS011;18656;50.580;11.392;2023-07-13T00:29:52;1.20;;;1.10;;
32152;SDS011;18656;50.580;11.392;2023-07-13T00:32:19;0.77;;;0.77;;
32152;SDS011;18656;50.580;11.392;2023-07-13T00:34:47;1.35;;;1.02;;
32152;SDS011;18656;50.580;11.392;2023-07-13T00:37:14;3.38;;;0.95;;
32152;SDS011;18656;50.580;11.392;2023-07-13T00:39:41;1.38;;;0.85;;
32152;SDS011;18656;50.580;11.392;2023-07-13T00:42:08;6.97;;;1.67;;
32152;SDS011;18656;50.580;11.392;2023-07-13T00:44:36;2.05;;;0.90;;
32152;SDS011;18656;50.580;11.392;2023-07-13T00:47:03;1.10;;;0.80;;
32152;SDS011;18656;50.580;11.392;2023-07-13T00:49:30;1.08;;;0.98;;
32152;SDS011;18656;50.580;11.392;2023-07-13T00:52:04;2.05;;;0.75;;
32152;SDS011;18656;50.580;11.392;2023-07-13T00:54:34;1.92;;;1.00;;
32152;SDS011;18656;50.580;11.392;2023-07-13T00:57:04;0.80;;;0.80;;
32152;SDS011;18656;50.580;11.392;2023-07-13T00:59:32;1.17;;;0.68;;
32152;SDS011;18656;50.580;11.392;2023-07-13T01:02:01;1.77;;;0.77;;
32152;SDS011;18656;50.580;11.392;2023-07-13T01:04:28;2.50;;;0.60;;
32152;SDS011;18656;50.580;11.392;2023-07-13T01:06:56;1.33;;;0.90;;
32152;SDS011;18656;50.580;11.392;2023-07-13T01:09:25;1.60;;;1.13;;
32152;SDS011;18656;50.580;11.392;2023-07-13T01:11:52;2.08;;;0.88;;
32152;SDS011;18656;50.580;11.392;2023-07-13T01:14:20;1.35;;;0.77;;
32152;SDS011;18656;50.580;11.392;2023-07-13T01:16:47;2.13;;;1.00;;
32152;SDS011;18656;50.580;11.392;2023-07-13T01:19:21;4.68;;;1.30;;
32152;SDS011;18656;50.580;11.392;2023-07-13T01:22:03;2.38;;;1.10;;
32152;SDS011;18656;50.580;11.392;2023-07-13T01:24:30;1.30;;;0.80;;
32152;SDS011;18656;50.580;11.392;2023-07-13T01:26:58;1.98;;;0.88;;
32152;SDS011;18656;50.580;11.392;2023-07-13T01:29:25;3.10;;;0.98;;
32152;SDS011;18656;50.580;11.392;2023-07-13T01:31:52;1.17;;;0.80;;
32152;SDS011;18656;50.580;11.392;2023-07-13T01:34:20;1.35;;;0.90;;
32152;SDS011;18656;50.580;11.392;2023-07-13T01:36:47;3.83;;;1.33;;
32152;SDS011;18656;50.580;11.392;2023-07-13T01:39:14;2.88;;;1.00;;
32152;SDS011;18656;50.580;11.392;2023-07-13T01:41:43;0.77;;;0.75;;
32152;SDS011;18656;50.580;11.392;2023-07-13T01:44:10;2.92;;;0.98;;
32152;SDS011;18656;50.580;11.392;2023-07-13T01:46:37;4.15;;;1.00;;
32152;SDS011;18656;50.580;11.392;2023-07-13T01:49:04;1.13;;;1.02;;
32152;SDS011;18656;50.580;11.392;2023-07-13T01:51:32;4.47;;;1.15;;
32152;SDS011;18656;50.580;11.392;2023-07-13T01:53:59;3.75;;;0.80;;
32152;SDS011;18656;50.580;11.392;2023-07-13T01:56:26;2.10;;;0.98;;
32152;SDS011;18656;50.580;11.392;2023-07-13T01:58:54;1.70;;;0.80;;
32152;SDS011;18656;50.580;11.392;2023-07-13T02:01:21;3.55;;;1.40;;
32152;SDS011;18656;50.580;11.392;2023-07-13T02:03:48;1.83;;;0.82;;
32152;SDS011;18656;50.580;11.392;2023-07-13T02:06:15;1.30;;;1.08;;
32152;SDS011;18656;50.580;11.392;2023-07-13T02:08:43;1.10;;;1.10;;
32152;SDS011;18656;50.580;11.392;2023-07-13T02:11:10;3.17;;;0.85;;
32152;SDS011;18656;50.580;11.392;2023-07-13T02:13:37;1.20;;;0.95;;
32152;SDS011;18656;50.580;11.392;2023-07-13T02:16:05;1.27;;;1.15;;
32152;SDS011;18656;50.580;11.392;2023-07-13T02:18:32;2.85;;;1.20;;
32152;SDS011;18656;50.580;11.392;2023-07-13T02:21:00;4.82;;;1.00;;
32152;SDS011;18656;50.580;11.392;2023-07-13T02:23:27;1.70;;;1.08;;
32152;SDS011;18656;50.580;11.392;2023-07-13T02:25:55;3.35;;;1.02;;
32152;SDS011;18656;50.580;11.392;2023-07-13T02:28:22;1.27;;;1.02;;
32152;SDS011;18656;50.580;11.392;2023-07-13T02:30:50;1.35;;;0.90;;
32152;SDS011;18656;50.580;11.392;2023-07-13T02:33:17;2.75;;;1.15;;
32152;SDS011;18656;50.580;11.392;2023-07-13T02:35:44;2.03;;;1.20;;
32152;SDS011;18656;50.580;11.392;2023-07-13T02:38:11;1.70;;;0.90;;
32152;SDS011;18656;50.580;11.392;2023-07-13T02:40:39;4.88;;;1.08;;
32152;SDS011;18656;50.580;11.392;2023-07-13T02:43:06;2.47;;;1.00;;
32152;SDS011;18656;50.580;11.392;2023-07-13T02:45:33;2.53;;;1.17;;
32152;SDS011;18656;50.580;11.392;2023-07-13T02:48:00;1.88;;;0.95;;
32152;SDS011;18656;50.580;11.392;2023-07-13T02:50:27;2.97;;;1.10;;
32152;SDS011;18656;50.580;11.392;2023-07-13T02:52:55;2.33;;;0.98;;
32152;SDS011;18656;50.580;11.392;2023-07-13T02:55:22;2.95;;;1.17;;
32152;SDS011;18656;50.580;11.392;2023-07-13T02:57:49;4.15;;;1.00;;
32152;SDS011;18656;50.580;11.392;2023-07-13T03:00:17;1.98;;;1.10;;
32152;SDS011;18656;50.580;11.392;2023-07-13T03:02:44;2.30;;;0.90;;
32152;SDS011;18656;50.580;11.392;2023-07-13T03:05:12;1.80;;;1.30;;
32152;SDS011;18656;50.580;11.392;2023-07-13T03:07:39;1.23;;;1.13;;
32152;SDS011;18656;50.580;11.392;2023-07-13T03:10:06;1.02;;;0.98;;
32152;SDS011;18656;50.580;11.392;2023-07-13T03:12:34;4.05;;;1.10;;
32152;SDS011;18656;50.580;11.392;2023-07-13T03:15:01;0.85;;;0.85;;
32152;SDS011;18656;50.580;11.392;2023-07-13T03:17:29;1.20;;;0.98;;
32152;SDS011;18656;50.580;11.392;2023-07-13T03:19:56;3.78;;;1.20;;
32152;SDS011;18656;50.580;11.392;2023-07-13T03:22:23;1.58;;;1.13;;
32152;SDS011;18656;50.580;11.392;2023-07-13T03:24:50;1.52;;;1.35;;
32152;SDS011;18656;50.580;11.392;2023-07-13T03:27:18;4.05;;;1.10;;
32152;SDS011;18656;50.580;11.392;2023-07-13T03:29:45;2.15;;;1.00;;
32152;SDS011;18656;50.580;11.392;2023-07-13T03:32:12;1.15;;;1.00;;
32152;SDS011;18656;50.580;11.392;2023-07-13T03:34:39;4.55;;;1.70;;
32152;SDS011;18656;50.580;11.392;2023-07-13T03:37:06;6.95;;;1.60;;
32152;SDS011;18656;50.580;11.392;2023-07-13T03:39:34;2.20;;;1.20;;
32152;SDS011;18656;50.580;11.392;2023-07-13T03:42:01;2.95;;;1.00;;
32152;SDS011;18656;50.580;11.392;2023-07-13T03:44:28;7.03;;;1.50;;
32152;SDS011;18656;50.580;11.392;2023-07-13T03:46:55;1.55;;;1.40;;
32152;SDS011;18656;50.580;11.392;2023-07-13T03:49:23;1.42;;;1.25;;
32152;SDS011;18656;50.580;11.392;2023-07-13T03:51:50;1.52;;;1.27;;
32152;SDS011;18656;50.580;11.392;2023-07-13T03:54:19;1.40;;;1.30;;
32152;SDS011;18656;50.580;11.392;2023-07-13T03:56:47;1.95;;;1.33;;
32152;SDS011;18656;50.580;11.392;2023-07-13T03:59:14;2.28;;;1.35;;
32152;SDS011;18656;50.580;11.392;2023-07-13T04:01:42;3.78;;;1.50;;
32152;SDS011;18656;50.580;11.392;2023-07-13T04:04:10;1.42;;;1.33;;
32152;SDS011;18656;50.580;11.392;2023-07-13T04:06:37;4.45;;;1.17;;
32152;SDS011;18656;50.580;11.392;2023-07-13T04:09:04;14.90;;;2.42;;
32152;SDS011;18656;50.580;11.392;2023-07-13T04:11:32;12.38;;;1.73;;
32152;SDS011;18656;50.580;11.392;2023-07-13T04:14:00;12.18;;;2.00;;
32152;SDS011;18656;50.580;11.392;2023-07-13T04:16:27;4.40;;;1.45;;
32152;SDS011;18656;50.580;11.392;2023-07-13T04:18:55;3.58;;;1.33;;
32152;SDS011;18656;50.580;11.392;2023-07-13T04:21:27;2.95;;;1.17;;
32152;SDS011;18656;50.580;11.392;2023-07-13T04:23:54;13.77;;;2.08;;
32152;SDS011;18656;50.580;11.392;2023-07-13T04:26:22;3.40;;;1.55;;
32152;SDS011;18656;50.580;11.392;2023-07-13T04:28:50;4.78;;;1.90;;
32152;SDS011;18656;50.580;11.392;2023-07-13T04:31:17;3.33;;;1.67;;
32152;SDS011;18656;50.580;11.392;2023-07-13T04:33:45;3.45;;;2.17;;
32152;SDS011;18656;50.580;11.392;2023-07-13T04:36:14;2.03;;;1.30;;
32152;SDS011;18656;50.580;11.392;2023-07-13T04:38:41;7.05;;;1.80;;
32152;SDS011;18656;50.580;11.392;2023-07-13T04:41:09;4.93;;;1.75;;
32152;SDS011;18656;50.580;11.392;2023-07-13T04:43:36;1.50;;;1.25;;
32152;SDS011;18656;50.580;11.392;2023-07-13T04:46:08;8.05;;;2.00;;
32152;SDS011;18656;50.580;11.392;2023-07-13T04:48:36;6.00;;;2.07;;
32152;SDS011;18656;50.580;11.392;2023-07-13T04:51:03;14.98;;;2.08;;
32152;SDS011;18656;50.580;11.392;2023-07-13T04:53:31;4.72;;;1.80;;
32152;SDS011;18656;50.580;11.392;2023-07-13T04:55:58;6.53;;;2.00;;
32152;SDS011;18656;50.580;11.392;2023-07-13T04:58:26;2.78;;;1.50;;
32152;SDS011;18656;50.580;11.392;2023-07-13T05:00:53;5.15;;;1.45;;
32152;SDS011;18656;50.580;11.392;2023-07-13T05:03:26;4.23;;;1.63;;
32152;SDS011;18656;50.580;11.392;2023-07-13T05:05:54;1.60;;;1.50;;
32152;SDS011;18656;50.580;11.392;2023-07-13T05:08:21;3.17;;;1.60;;
32152;SDS011;18656;50.580;11.392;2023-07-13T05:10:49;2.38;;;1.15;;
32152;SDS011;18656;50.580;11.392;2023-07-13T05:13:16;4.35;;;1.15;;
32152;SDS011;18656;50.580;11.392;2023-07-13T05:15:44;1.75;;;1.48;;
32152;SDS011;18656;50.580;11.392;2023-07-13T05:18:11;4.05;;;1.10;;
32152;SDS011;18656;50.580;11.392;2023-07-13T05:20:38;1.35;;;1.20;;
32152;SDS011;18656;50.580;11.392;2023-07-13T05:23:06;7.47;;;1.20;;
32152;SDS011;18656;50.580;11.392;2023-07-13T05:25:33;1.27;;;1.02;;
32152;SDS011;18656;50.580;11.392;2023-07-13T05:28:00;6.82;;;1.30;;
32152;SDS011;18656;50.580;11.392;2023-07-13T05:30:27;1.98;;;1.00;;
32152;SDS011;18656;50.580;11.392;2023-07-13T05:32:55;11.35;;;1.98;;
32152;SDS011;18656;50.580;11.392;2023-07-13T05:35:22;9.90;;;2.20;;
32152;SDS011;18656;50.580;11.392;2023-07-13T05:37:49;3.72;;;1.27;;
32152;SDS011;18656;50.580;11.392;2023-07-13T05:40:17;3.60;;;1.23;;
32152;SDS011;18656;50.580;11.392;2023-07-13T05:42:44;13.50;;;2.25;;
32152;SDS011;18656;50.580;11.392;2023-07-13T05:45:11;15.13;;;2.60;;
32152;SDS011;18656;50.580;11.392;2023-07-13T05:47:38;7.20;;;1.80;;
32152;SDS011;18656;50.580;11.392;2023-07-13T05:50:06;7.13;;;1.50;;
32152;SDS011;18656;50.580;11.392;2023-07-13T05:52:33;8.60;;;1.45;;
32152;SDS011;18656;50.580;11.392;2023-07-13T05:55:00;7.28;;;1.88;;
32152;SDS011;18656;50.580;11.392;2023-07-13T05:57:29;10.85;;;1.70;;
32152;SDS011;18656;50.580;11.392;2023-07-13T05:59:57;7.60;;;1.52;;
32152;SDS011;18656;50.580;11.392;2023-07-13T06:02:25;7.85;;;2.17;;
32152;SDS011;18656;50.580;11.392;2023-07-13T06:04:52;8.15;;;1.38;;
32152;SDS011;18656;50.580;11.392;2023-07-13T06:07:20;2.78;;;0.98;;
32152;SDS011;18656;50.580;11.392;2023-07-13T06:09:47;1.70;;;1.05;;
32152;SDS011;18656;50.580;11.392;2023-07-13T06:12:14;3.90;;;1.30;;
32152;SDS011;18656;50.580;11.392;2023-07-13T06:14:42;4.45;;;1.27;;
32152;SDS011;18656;50.580;11.392;2023-07-13T06:17:09;3.05;;;1.10;;
32152;SDS011;18656;50.580;11.392;2023-07-13T06:19:36;4.07;;;1.10;;
32152;SDS011;18656;50.580;11.392;2023-07-13T06:22:04;3.60;;;1.20;;
32152;SDS011;18656;50.580;11.392;2023-07-13T06:24:31;1.90;;;0.90;;
32152;SDS011;18656;50.580;11.392;2023-07-13T06:26:59;2.80;;;1.00;;
32152;SDS011;18656;50.580;11.392;2023-07-13T06:29:26;3.92;;;0.90;;
32152;SDS011;18656;50.580;11.392;2023-07-13T06:31:54;5.38;;;0.95;;
32152;SDS011;18656;50.580;11.392;2023-07-13T06:34:22;1.73;;;0.95;;
32152;SDS011;18656;50.580;11.392;2023-07-13T06:36:49;2.70;;;1.00;;
32152;SDS011;18656;50.580;11.392;2023-07-13T06:39:16;3.28;;;1.23;;
32152;SDS011;18656;50.580;11.392;2023-07-13T06:41:43;3.22;;;0.93;;
32152;SDS011;18656;50.580;11.392;2023-07-13T06:44:10;1.00;;;0.80;;
32152;SDS011;18656;50.580;11.392;2023-07-13T06:46:38;4.07;;;1.20;;
32152;SDS011;18656;50.580;11.392;2023-07-13T06:49:05;6.25;;;1.40;;
32152;SDS011;18656;50.580;11.392;2023-07-13T06:51:32;5.22;;;1.10;;
32152;SDS011;18656;50.580;11.392;2023-07-13T06:54:00;4.32;;;0.80;;
32152;SDS011;18656;50.580;11.392;2023-07-13T06:56:27;2.88;;;0.85;;
32152;SDS011;18656;50.580;11.392;2023-07-13T06:58:54;3.33;;;0.85;;
32152;SDS011;18656;50.580;11.392;2023-07-13T07:01:21;3.13;;;1.10;;
32152;SDS011;18656;50.580;11.392;2023-07-13T07:03:49;10.30;;;1.30;;
32152;SDS011;18656;50.580;11.392;2023-07-13T07:06:17;3.63;;;1.10;;
32152;SDS011;18656;50.580;11.392;2023-07-13T07:08:45;1.90;;;0.77;;
32152;SDS011;18656;50.580;11.392;2023-07-13T07:11:13;1.33;;;0.80;;
32152;SDS011;18656;50.580;11.392;2023-07-13T07:13:40;2.20;;;0.80;;
32152;SDS011;18656;50.580;11.392;2023-07-13T07:16:08;5.05;;;1.00;;
32152;SDS011;18656;50.580;11.392;2023-07-13T07:18:38;5.28;;;1.00;;
32152;SDS011;18656;50.580;11.392;2023-07-13T07:21:06;5.32;;;1.42;;
32152;SDS011;18656;50.580;11.392;2023-07-13T07:23:34;7.82;;;1.20;;
32152;SDS011;18656;50.580;11.392;2023-07-13T07:26:01;6.00;;;1.45;;
32152;SDS011;18656;50.580;11.392;2023-07-13T07:28:29;3.70;;;1.27;;
32152;SDS011;18656;50.580;11.392;2023-07-13T07:31:08;1.00;;;0.60;;
32152;SDS011;18656;50.580;11.392;2023-07-13T07:33:38;3.58;;;0.95;;
32152;SDS011;18656;50.580;11.392;2023-07-13T07:36:05;3.90;;;1.00;;
32152;SDS011;18656;50.580;11.392;2023-07-13T07:38:36;5.13;;;0.98;;
32152;SDS011;18656;50.580;11.392;2023-07-13T07:41:04;3.00;;;0.88;;
32152;SDS011;18656;50.580;11.392;2023-07-13T07:43:34;3.30;;;1.40;;
32152;SDS011;18656;50.580;11.392;2023-07-13T07:46:01;5.32;;;1.17;;
32152;SDS011;18656;50.580;11.392;2023-07-13T07:48:29;2.13;;;0.93;;
32152;SDS011;18656;50.580;11.392;2023-07-13T07:50:56;3.30;;;0.77;;
32152;SDS011;18656;50.580;11.392;2023-07-13T07:53:25;3.33;;;0.80;;
32152;SDS011;18656;50.580;11.392;2023-07-13T07:55:52;2.40;;;0.70;;
32152;SDS011;18656;50.580;11.392;2023-07-13T07:58:22;3.20;;;0.70;;
32152;SDS011;18656;50.580;11.392;2023-07-13T08:00:52;1.92;;;0.90;;
32152;SDS011;18656;50.580;11.392;2023-07-13T08:03:23;3.72;;;1.30;;
32152;SDS011;18656;50.580;11.392;2023-07-13T08:05:53;3.70;;;1.02;;
32152;SDS011;18656;50.580;11.392;2023-07-13T08:08:23;4.35;;;0.90;;
32152;SDS011;18656;50.580;11.392;2023-07-13T08:10:51;2.95;;;0.90;;
32152;SDS011;18656;50.580;11.392;2023-07-13T08:13:23;4.50;;;1.00;;
32152;SDS011;18656;50.580;11.392;2023-07-13T08:15:50;3.70;;;0.88;;
32152;SDS011;18656;50.580;11.392;2023-07-13T08:18:18;6.13;;;0.55;;
32152;SDS011;18656;50.580;11.392;2023-07-13T08:20:45;3.03;;;0.52;;
32152;SDS011;18656;50.580;11.392;2023-07-13T08:23:12;1.67;;;0.80;;
32152;SDS011;18656;50.580;11.392;2023-07-13T08:25:39;3.33;;;0.70;;
32152;SDS011;18656;50.580;11.392;2023-07-13T08:28:07;3.35;;;0.80;;
32152;SDS011;18656;50.580;11.392;2023-07-13T08:30:34;2.45;;;0.80;;
32152;SDS011;18656;50.580;11.392;2023-07-13T08:33:02;2.47;;;1.00;;
32152;SDS011;18656;50.580;11.392;2023-07-13T08:35:29;1.88;;;0.60;;
32152;SDS011;18656;50.580;11.392;2023-07-13T08:37:57;2.45;;;0.65;;
32152;SDS011;18656;50.580;11.392;2023-07-13T08:40:27;2.05;;;0.60;;
32152;SDS011;18656;50.580;11.392;2023-07-13T08:42:55;6.28;;;0.80;;
32152;SDS011;18656;50.580;11.392;2023-07-13T08:48:04;1.40;;;0.50;;
32152;SDS011;18656;50.580;11.392;2023-07-13T08:50:33;2.60;;;0.60;;
32152;SDS011;18656;50.580;11.392;2023-07-13T08:53:19;5.93;;;0.73;;
32152;SDS011;18656;50.580;11.392;2023-07-13T08:55:46;4.18;;;0.55;;
32152;SDS011;18656;50.580;11.392;2023-07-13T08:58:15;0.50;;;0.40;;
32152;SDS011;18656;50.580;11.392;2023-07-13T09:01:45;1.90;;;0.80;;
32152;SDS011;18656;50.580;11.392;2023-07-13T09:03:41;3.03;;;0.60;;
32152;SDS011;18656;50.580;11.392;2023-07-13T09:06:09;4.95;;;0.80;;
32152;SDS011;18656;50.580;11.392;2023-07-13T09:08:58;8.52;;;1.50;;
32152;SDS011;18656;50.580;11.392;2023-07-13T09:11:31;5.60;;;1.00;;
32152;SDS011;18656;50.580;11.392;2023-07-13T09:16:33;2.35;;;0.77;;
32152;SDS011;18656;50.580;11.392;2023-07-13T09:19:02;3.00;;;0.70;;
32152;SDS011;18656;50.580;11.392;2023-07-13T09:21:32;1.90;;;0.68;;
32152;SDS011;18656;50.580;11.392;2023-07-13T09:24:01;1.90;;;0.95;;
32152;SDS011;18656;50.580;11.392;2023-07-13T09:26:30;2.38;;;0.80;;
32152;SDS011;18656;50.580;11.392;2023-07-13T09:29:03;1.42;;;0.50;;
32152;SDS011;18656;50.580;11.392;2023-07-13T09:31:32;1.80;;;1.00;;
32152;SDS011;18656;50.580;11.392;2023-07-13T09:34:00;6.70;;;0.95;;
32152;SDS011;18656;50.580;11.392;2023-07-13T09:36:29;1.88;;;0.80;;
32152;SDS011;18656;50.580;11.392;2023-07-13T09:39:14;7.47;;;0.95;;
32152;SDS011;18656;50.580;11.392;2023-07-13T09:44:32;1.70;;;0.65;;
32152;SDS011;18656;50.580;11.392;2023-07-13T09:47:01;6.70;;;0.80;;
32152;SDS011;18656;50.580;11.392;2023-07-13T09:49:38;1.55;;;0.60;;
32152;SDS011;18656;50.580;11.392;2023-07-13T09:52:07;1.27;;;0.70;;
32152;SDS011;18656;50.580;11.392;2023-07-13T09:54:37;1.83;;;0.40;;
32152;SDS011;18656;50.580;11.392;2023-07-13T09:57:18;2.15;;;0.60;;
32152;SDS011;18656;50.580;11.392;2023-07-13T09:59:46;1.85;;;0.38;;
32152;SDS011;18656;50.580;11.392;2023-07-13T10:05:03;1.27;;;0.50;;
32152;SDS011;18656;50.580;11.392;2023-07-13T10:07:31;0.60;;;0.38;;
32152;SDS011;18656;50.580;11.392;2023-07-13T10:10:00;3.83;;;0.43;;
32152;SDS011;18656;50.580;11.392;2023-07-13T10:12:29;4.78;;;0.50;;
32152;SDS011;18656;50.580;11.392;2023-07-13T10:14:58;0.57;;;0.20;;
32152;SDS011;18656;50.580;11.392;2023-07-13T10:17:42;6.65;;;0.70;;
32152;SDS011;18656;50.580;11.392;2023-07-13T10:20:10;1.10;;;0.38;;
32152;SDS011;18656;50.580;11.392;2023-07-13T10:23:00;1.50;;;0.30;;
32152;SDS011;18656;50.580;11.392;2023-07-13T10:25:32;6.53;;;1.05;;
32152;SDS011;18656;50.580;11.392;2023-07-13T10:30:43;1.23;;;0.30;;
32152;SDS011;18656;50.580;11.392;2023-07-13T10:33:13;0.73;;;0.30;;
32152;SDS011;18656;50.580;11.392;2023-07-13T10:35:42;0.40;;;0.30;;
32152;SDS011;18656;50.580;11.392;2023-07-13T10:38:11;0.47;;;0.30;;
32152;SDS011;18656;50.580;11.392;2023-07-13T10:40:42;1.48;;;0.25;;
32152;SDS011;18656;50.580;11.392;2023-07-13T10:43:15;3.05;;;0.40;;
32152;SDS011;18656;50.580;11.392;2023-07-13T10:48:12;1.48;;;0.22;;
32152;SDS011;18656;50.580;11.392;2023-07-13T10:50:44;9.65;;;1.25;;
32152;SDS011;18656;50.580;11.392;2023-07-13T10:53:17;0.38;;;0.28;;
32152;SDS011;18656;50.580;11.392;2023-07-13T10:58:21;0.52;;;0.20;;
32152;SDS011;18656;50.580;11.392;2023-07-13T11:03:22;5.30;;;0.30;;
32152;SDS011;18656;50.580;11.392;2023-07-13T11:05:51;8.23;;;0.80;;
32152;SDS011;18656;50.580;11.392;2023-07-13T11:10:58;1.40;;;0.47;;
32152;SDS011;18656;50.580;11.392;2023-07-13T11:16:10;1.67;;;0.30;;
32152;SDS011;18656;50.580;11.392;2023-07-13T11:18:40;1.00;;;0.20;;
32152;SDS011;18656;50.580;11.392;2023-07-13T11:21:18;4.65;;;0.32;;
32152;SDS011;18656;50.580;11.392;2023-07-13T11:26:43;0.40;;;0.30;;
32152;SDS011;18656;50.580;11.392;2023-07-13T11:29:24;0.50;;;0.20;;
32152;SDS011;18656;50.580;11.392;2023-07-13T11:31:53;2.70;;;0.32;;
32152;SDS011;18656;50.580;11.392;2023-07-13T11:34:28;4.45;;;0.47;;
32152;SDS011;18656;50.580;11.392;2023-07-13T11:36:57;0.47;;;0.22;;
32152;SDS011;18656;50.580;11.392;2023-07-13T11:39:28;0.20;;;0.20;;
32152;SDS011;18656;50.580;11.392;2023-07-13T11:41:58;4.43;;;0.50;;
32152;SDS011;18656;50.580;11.392;2023-07-13T11:44:28;1.73;;;0.50;;
32152;SDS011;18656;50.580;11.392;2023-07-13T11:46:56;2.47;;;0.30;;
32152;SDS011;18656;50.580;11.392;2023-07-13T11:49:29;1.75;;;0.25;;
32152;SDS011;18656;50.580;11.392;2023-07-13T11:51:58;0.93;;;0.50;;
32152;SDS011;18656;50.580;11.392;2023-07-13T11:54:28;1.75;;;0.50;;
32152;SDS011;18656;50.580;11.392;2023-07-13T11:56:57;0.20;;;0.20;;
32152;SDS011;18656;50.580;11.392;2023-07-13T11:59:27;1.58;;;0.20;;
32152;SDS011;18656;50.580;11.392;2023-07-13T12:01:54;0.40;;;0.20;;
32152;SDS011;18656;50.580;11.392;2023-07-13T12:04:25;0.57;;;0.25;;
32152;SDS011;18656;50.580;11.392;2023-07-13T12:06:55;0.52;;;0.30;;
32152;SDS011;18656;50.580;11.392;2023-07-13T12:09:22;3.13;;;0.40;;
32152;SDS011;18656;50.580;11.392;2023-07-13T12:11:51;0.20;;;0.20;;
32152;SDS011;18656;50.580;11.392;2023-07-13T12:14:19;1.02;;;0.20;;
32152;SDS011;18656;50.580;11.392;2023-07-13T12:16:47;2.63;;;0.30;;
32152;SDS011;18656;50.580;11.392;2023-07-13T12:19:22;3.22;;;0.43;;
32152;SDS011;18656;50.580;11.392;2023-07-13T12:21:50;0.68;;;0.20;;
32152;SDS011;18656;50.580;11.392;2023-07-13T12:24:20;1.98;;;0.30;;
32152;SDS011;18656;50.580;11.392;2023-07-13T12:26:59;6.63;;;0.60;;
32152;SDS011;18656;50.580;11.392;2023-07-13T12:29:27;0.45;;;0.45;;
32152;SDS011;18656;50.580;11.392;2023-07-13T12:31:54;2.67;;;0.47;;
32152;SDS011;18656;50.580;11.392;2023-07-13T12:34:23;0.35;;;0.32;;
32152;SDS011;18656;50.580;11.392;2023-07-13T12:39:23;25.02;;;2.22;;
32152;SDS011;18656;50.580;11.392;2023-07-13T12:41:52;2.22;;;0.60;;
32152;SDS011;18656;50.580;11.392;2023-07-13T12:44:27;4.22;;;0.60;;
32152;SDS011;18656;50.580;11.392;2023-07-13T12:47:06;3.33;;;0.85;;
32152;SDS011;18656;50.580;11.392;2023-07-13T12:49:42;0.60;;;0.40;;
32152;SDS011;18656;50.580;11.392;2023-07-13T12:52:14;2.15;;;0.52;;
32152;SDS011;18656;50.580;11.392;2023-07-13T12:54:42;5.90;;;1.08;;
32152;SDS011;18656;50.580;11.392;2023-07-13T12:57:31;2.53;;;0.80;;
32152;SDS011;18656;50.580;11.392;2023-07-13T12:59:59;8.93;;;0.93;;
32152;SDS011;18656;50.580;11.392;2023-07-13T13:02:29;2.92;;;0.50;;
32152;SDS011;18656;50.580;11.392;2023-07-13T13:05:01;0.50;;;0.50;;
32152;SDS011;18656;50.580;11.392;2023-07-13T13:07:30;4.93;;;0.73;;
32152;SDS011;18656;50.580;11.392;2023-07-13T13:09:58;1.35;;;0.70;;
32152;SDS011;18656;50.580;11.392;2023-07-13T13:12:25;4.13;;;0.60;;
32152;SDS011;18656;50.580;11.392;2023-07-13T13:14:52;2.20;;;0.60;;
32152;SDS011;18656;50.580;11.392;2023-07-13T13:17:22;1.25;;;0.60;;
32152;SDS011;18656;50.580;11.392;2023-07-13T13:19:53;2.67;;;0.93;;
32152;SDS011;18656;50.580;11.392;2023-07-13T13:22:21;1.33;;;0.32;;
32152;SDS011;18656;50.580;11.392;2023-07-13T13:24:48;3.50;;;1.00;;
32152;SDS011;18656;50.580;11.392;2023-07-13T13:27:16;2.15;;;0.50;;
32152;SDS011;18656;50.580;11.392;2023-07-13T13:29:44;3.40;;;0.70;;
32152;SDS011;18656;50.580;11.392;2023-07-13T13:32:11;54.47;;;3.13;;
32152;SDS011;18656;50.580;11.392;2023-07-13T13:34:39;7.53;;;0.60;;
32152;SDS011;18656;50.580;11.392;2023-07-13T13:37:14;5.60;;;0.70;;
32152;SDS011;18656;50.580;11.392;2023-07-13T13:39:43;3.17;;;0.40;;
32152;SDS011;18656;50.580;11.392;2023-07-13T13:42:28;0.50;;;0.50;;
32152;SDS011;18656;50.580;11.392;2023-07-13T13:44:55;4.47;;;0.40;;
32152;SDS011;18656;50.580;11.392;2023-07-13T13:47:30;4.38;;;0.50;;
32152;SDS011;18656;50.580;11.392;2023-07-13T13:49:59;1.45;;;0.50;;
32152;SDS011;18656;50.580;11.392;2023-07-13T13:52:26;2.22;;;0.70;;
32152;SDS011;18656;50.580;11.392;2023-07-13T13:54:54;1.55;;;0.50;;
32152;SDS011;18656;50.580;11.392;2023-07-13T13:57:23;9.07;;;0.90;;
32152;SDS011;18656;50.580;11.392;2023-07-13T13:59:52;3.53;;;0.60;;
32152;SDS011;18656;50.580;11.392;2023-07-13T14:02:23;1.92;;;0.50;;
32152;SDS011;18656;50.580;11.392;2023-07-13T14:04:59;1.95;;;0.40;;
32152;SDS011;18656;50.580;11.392;2023-07-13T14:07:27;0.57;;;0.30;;
32152;SDS011;18656;50.580;11.392;2023-07-13T14:09:57;1.73;;;0.45;;
32152;SDS011;18656;50.580;11.392;2023-07-13T14:12:24;5.68;;;0.60;;
32152;SDS011;18656;50.580;11.392;2023-07-13T14:14:57;2.67;;;0.47;;
32152;SDS011;18656;50.580;11.392;2023-07-13T14:17:25;0.70;;;0.40;;
32152;SDS011;18656;50.580;11.392;2023-07-13T14:19:53;2.53;;;0.47;;
32152;SDS011;18656;50.580;11.392;2023-07-13T14:22:26;1.05;;;0.50;;
32152;SDS011;18656;50.580;11.392;2023-07-13T14:24:53;2.78;;;0.40;;
32152;SDS011;18656;50.580;11.392;2023-07-13T14:27:21;1.02;;;0.60;;
32152;SDS011;18656;50.580;11.392;2023-07-13T14:29:49;1.52;;;0.30;;
32152;SDS011;18656;50.580;11.392;2023-07-13T14:32:16;3.88;;;0.40;;
32152;SDS011;18656;50.580;11.392;2023-07-13T14:34:43;1.17;;;0.50;;
32152;SDS011;18656;50.580;11.392;2023-07-13T14:37:12;2.45;;;0.43;;
32152;SDS011;18656;50.580;11.392;2023-07-13T14:39:40;2.80;;;0.60;;
32152;SDS011;18656;50.580;11.392;2023-07-13T14:42:10;6.28;;;0.70;;
32152;SDS011;18656;50.580;11.392;2023-07-13T14:44:37;1.98;;;0.40;;
32152;SDS011;18656;50.580;11.392;2023-07-13T14:47:06;0.90;;;0.50;;
32152;SDS011;18656;50.580;11.392;2023-07-13T14:49:34;0.40;;;0.30;;
32152;SDS011;18656;50.580;11.392;2023-07-13T14:52:10;1.48;;;0.32;;
32152;SDS011;18656;50.580;11.392;2023-07-13T14:54:37;0.95;;;0.40;;
32152;SDS011;18656;50.580;11.392;2023-07-13T14:57:14;2.50;;;0.30;;
32152;SDS011;18656;50.580;11.392;2023-07-13T14:59:42;0.85;;;0.40;;
32152;SDS011;18656;50.580;11.392;2023-07-13T15:02:16;0.98;;;0.40;;
32152;SDS011;18656;50.580;11.392;2023-07-13T15:04:44;0.90;;;0.45;;
32152;SDS011;18656;50.580;11.392;2023-07-13T15:07:11;1.52;;;0.50;;
32152;SDS011;18656;50.580;11.392;2023-07-13T15:09:41;2.72;;;0.60;;
32152;SDS011;18656;50.580;11.392;2023-07-13T15:12:09;2.08;;;0.40;;
32152;SDS011;18656;50.580;11.392;2023-07-13T15:14:36;1.00;;;0.47;;